sensor_id;sensor_type;location;lat;lon;timestamp;pressure;altitude;pressure_sealevel;temperature;humidity
12801;BME280;6464;42.494;27.470;2023-05-21T04:05:28;99648.44;;;15.89;100.00
12801;BME280;6464;42.494;27.470;2023-05-21T04:18:33;99782.34;;;16.66;100.00
12801;BME280;6464;42.494;27.470;2023-05-21T04:41:00;99741.22;;;16.10;100.00
12801;BME280;6464;42.494;27.470;2023-05-21T04:46:30;99806.03;;;16.70;100.00
12801;BME280;6464;42.494;27.470;2023-05-21T04:51:51;99691.97;;;16.18;100.00
12801;BME280;6464;42.494;27.470;2023-05-21T04:54:33;99745.81;;;16.38;100.00
12801;BME280;6464;42.494;27.470;2023-05-21T04:57:25;99667.47;;;15.98;100.00
12801;BME280;6464;42.494;27.470;2023-05-21T05:00:06;99679.00;;;15.82;100.00
12801;BME280;6464;42.494;27.470;2023-05-21T05:37:48;99810.47;;;17.75;100.00
12801;BME280;6464;42.494;27.470;2023-05-21T05:40:35;99691.06;;;16.94;100.00
12801;BME280;6464;42.494;27.470;2023-05-21T06:00:02;99829.16;;;17.44;100.00
12801;BME280;6464;42.494;27.470;2023-05-21T06:05:29;100098.94;;;17.97;100.00
12801;BME280;6464;42.494;27.470;2023-05-21T06:10:43;100063.50;;;17.33;100.00
12801;BME280;6464;42.494;27.470;2023-05-21T06:39:08;100534.16;;;19.52;100.00
12801;BME280;6464;42.494;27.470;2023-05-21T06:41:36;100570.38;;;18.96;100.00
12801;BME280;6464;42.494;27.470;2023-05-21T06:44:04;100657.06;;;19.39;100.00
12801;BME280;6464;42.494;27.470;2023-05-21T06:46:31;100670.84;;;19.32;100.00
12801;BME280;6464;42.494;27.470;2023-05-21T06:49:04;100871.69;;;20.72;100.00
12801;BME280;6464;42.494;27.470;2023-05-21T06:51:58;100845.06;;;20.06;100.00
12801;BME280;6464;42.494;27.470;2023-05-21T06:58:02;100797.41;;;19.48;100.00
12801;BME280;6464;42.494;27.470;2023-05-21T07:00:42;100914.38;;;20.44;100.00
12801;BME280;6464;42.494;27.470;2023-05-21T07:03:15;101027.03;;;20.58;100.00
12801;BME280;6464;42.494;27.470;2023-05-21T07:05:45;100982.09;;;20.30;100.00
12801;BME280;6464;42.494;27.470;2023-05-21T07:11:08;100907.00;;;20.16;100.00
12801;BME280;6464;42.494;27.470;2023-05-21T07:16:46;100880.25;;;20.32;100.00
12801;BME280;6464;42.494;27.470;2023-05-21T07:22:20;100847.34;;;19.98;100.00
12801;BME280;6464;42.494;27.470;2023-05-21T07:27:35;100774.53;;;19.75;100.00
12801;BME280;6464;42.494;27.470;2023-05-21T07:30:22;100767.56;;;20.35;100.00
12801;BME280;6464;42.494;27.470;2023-05-21T07:36:54;100842.44;;;21.14;100.00
12801;BME280;6464;42.494;27.470;2023-05-21T07:39:21;100970.78;;;22.08;100.00
12801;BME280;6464;42.494;27.470;2023-05-21T07:41:48;100975.06;;;22.13;100.00
12801;BME280;6464;42.494;27.470;2023-05-21T07:44:15;101046.13;;;22.78;100.00
12801;BME280;6464;42.494;27.470;2023-05-21T07:46:42;101048.41;;;22.84;100.00
12801;BME280;6464;42.494;27.470;2023-05-21T07:49:10;101089.84;;;23.23;100.00
12801;BME280;6464;42.494;27.470;2023-05-21T07:51:41;101019.44;;;22.75;100.00
12801;BME280;6464;42.494;27.470;2023-05-21T07:54:09;101107.44;;;23.56;100.00
12801;BME280;6464;42.494;27.470;2023-05-21T07:56:36;101161.81;;;24.15;100.00
12801;BME280;6464;42.494;27.470;2023-05-21T07:59:03;101189.25;;;23.95;100.00
12801;BME280;6464;42.494;27.470;2023-05-21T08:01:30;101176.28;;;23.74;100.00
12801;BME280;6464;42.494;27.470;2023-05-21T08:03:58;101195.94;;;24.02;100.00
12801;BME280;6464;42.494;27.470;2023-05-21T08:06:30;101167.56;;;23.42;100.00
12801;BME280;6464;42.494;27.470;2023-05-21T08:08:58;101194.81;;;23.79;100.00
12801;BME280;6464;42.494;27.470;2023-05-21T08:11:27;101168.69;;;23.94;100.00
12801;BME280;6464;42.494;27.470;2023-05-21T08:13:55;101232.78;;;24.68;100.00
12801;BME280;6464;42.494;27.470;2023-05-21T08:16:22;101216.59;;;24.43;100.00
12801;BME280;6464;42.494;27.470;2023-05-21T08:18:49;101128.28;;;23.25;100.00
12801;BME280;6464;42.494;27.470;2023-05-21T08:21:16;101154.00;;;23.85;100.00
12801;BME280;6464;42.494;27.470;2023-05-21T08:23:43;101140.94;;;23.79;100.00
12801;BME280;6464;42.494;27.470;2023-05-21T08:26:10;101116.88;;;23.49;100.00
12801;BME280;6464;42.494;27.470;2023-05-21T08:28:38;101050.72;;;22.91;100.00
12801;BME280;6464;42.494;27.470;2023-05-21T08:31:05;100952.66;;;21.98;100.00
12801;BME280;6464;42.494;27.470;2023-05-21T08:33:34;100801.38;;;21.27;100.00
12801;BME280;6464;42.494;27.470;2023-05-21T08:36:03;100873.19;;;21.95;100.00
12801;BME280;6464;42.494;27.470;2023-05-21T08:38:30;100927.75;;;22.10;100.00
12801;BME280;6464;42.494;27.470;2023-05-21T08:40:58;100884.16;;;22.33;100.00
12801;BME280;6464;42.494;27.470;2023-05-21T08:43:26;100994.88;;;22.53;100.00
12801;BME280;6464;42.494;27.470;2023-05-21T08:45:55;100970.69;;;22.53;100.00
12801;BME280;6464;42.494;27.470;2023-05-21T08:48:23;101013.44;;;22.99;100.00
12801;BME280;6464;42.494;27.470;2023-05-21T08:50:51;101054.28;;;23.32;100.00
12801;BME280;6464;42.494;27.470;2023-05-21T08:53:18;101080.41;;;23.57;100.00
12801;BME280;6464;42.494;27.470;2023-05-21T08:55:45;101076.06;;;23.69;100.00
12801;BME280;6464;42.494;27.470;2023-05-21T08:58:13;101139.38;;;24.02;100.00
12801;BME280;6464;42.494;27.470;2023-05-21T09:00:40;101141.91;;;24.30;100.00
12801;BME280;6464;42.494;27.470;2023-05-21T09:03:09;101175.06;;;24.71;100.00
12801;BME280;6464;42.494;27.470;2023-05-21T09:05:38;101141.91;;;24.30;100.00
12801;BME280;6464;42.494;27.470;2023-05-21T09:08:08;101149.72;;;24.48;100.00
12801;BME280;6464;42.494;27.470;2023-05-21T09:10:38;101178.31;;;24.63;100.00
12801;BME280;6464;42.494;27.470;2023-05-21T09:13:05;101115.63;;;23.81;100.00
12801;BME280;6464;42.494;27.470;2023-05-21T09:15:33;101162.44;;;24.97;100.00
12801;BME280;6464;42.494;27.470;2023-05-21T09:18:00;101180.13;;;24.88;100.00
12801;BME280;6464;42.494;27.470;2023-05-21T09:20:28;101175.72;;;24.87;100.00
12801;BME280;6464;42.494;27.470;2023-05-21T09:22:55;101225.47;;;25.34;100.00
12801;BME280;6464;42.494;27.470;2023-05-21T09:25:23;101165.47;;;24.54;100.00
12801;BME280;6464;42.494;27.470;2023-05-21T09:27:54;101089.50;;;24.34;100.00
12801;BME280;6464;42.494;27.470;2023-05-21T09:30:21;101057.22;;;23.42;100.00
12801;BME280;6464;42.494;27.470;2023-05-21T09:32:52;101063.63;;;23.94;100.00
12801;BME280;6464;42.494;27.470;2023-05-21T09:35:19;101111.88;;;23.97;100.00
12801;BME280;6464;42.494;27.470;2023-05-21T09:37:48;101181.28;;;25.22;100.00
12801;BME280;6464;42.494;27.470;2023-05-21T09:40:18;101242.91;;;25.54;100.00
12801;BME280;6464;42.494;27.470;2023-05-21T09:42:46;101330.25;;;28.01;100.00
12801;BME280;6464;42.494;27.470;2023-05-21T09:45:17;101400.44;;;29.34;100.00
12801;BME280;6464;42.494;27.470;2023-05-21T09:47:45;101426.50;;;29.36;100.00
12801;BME280;6464;42.494;27.470;2023-05-21T09:50:14;101350.22;;;27.88;100.00
12801;BME280;6464;42.494;27.470;2023-05-21T09:52:43;101365.56;;;28.22;100.00
12801;BME280;6464;42.494;27.470;2023-05-21T09:55:12;101389.41;;;28.61;100.00
12801;BME280;6464;42.494;27.470;2023-05-21T09:57:40;101369.66;;;27.60;100.00
12801;BME280;6464;42.494;27.470;2023-05-21T10:00:09;101363.50;;;28.14;100.00
12801;BME280;6464;42.494;27.470;2023-05-21T10:02:43;101464.81;;;31.06;100.00
12801;BME280;6464;42.494;27.470;2023-05-21T10:05:12;101464.50;;;30.99;100.00
12801;BME280;6464;42.494;27.470;2023-05-21T10:07:41;101421.09;;;30.18;100.00
12801;BME280;6464;42.494;27.470;2023-05-21T10:10:12;101467.13;;;31.30;100.00
12801;BME280;6464;42.494;27.470;2023-05-21T10:12:43;101453.75;;;30.97;100.00
12801;BME280;6464;42.494;27.470;2023-05-21T10:15:13;101451.63;;;31.30;100.00
12801;BME280;6464;42.494;27.470;2023-05-21T10:17:41;101455.88;;;31.52;100.00
12801;BME280;6464;42.494;27.470;2023-05-21T10:20:09;101412.47;;;30.92;100.00
12801;BME280;6464;42.494;27.470;2023-05-21T10:22:37;101464.28;;;32.53;100.00
12801;BME280;6464;42.494;27.470;2023-05-21T10:25:06;101298.41;;;28.14;100.00
12801;BME280;6464;42.494;27.470;2023-05-21T10:27:35;101340.91;;;29.52;100.00
12801;BME280;6464;42.494;27.470;2023-05-21T10:30:04;101435.16;;;31.88;100.00
12801;BME280;6464;42.494;27.470;2023-05-21T10:32:31;101500.00;;;33.40;100.00
12801;BME280;6464;42.494;27.470;2023-05-21T10:34:59;101529.72;;;33.97;100.00
12801;BME280;6464;42.494;27.470;2023-05-21T10:37:27;101525.53;;;34.11;100.00
12801;BME280;6464;42.494;27.470;2023-05-21T10:39:55;101510.00;;;33.93;100.00
12801;BME280;6464;42.494;27.470;2023-05-21T10:42:45;101422.34;;;31.13;100.00
12801;BME280;6464;42.494;27.470;2023-05-21T10:45:22;101455.66;;;32.20;100.00
12801;BME280;6464;42.494;27.470;2023-05-21T10:48:02;101417.41;;;31.55;100.00
12801;BME280;6464;42.494;27.470;2023-05-21T10:50:49;101429.22;;;31.17;100.00
12801;BME280;6464;42.494;27.470;2023-05-21T10:53:31;101411.69;;;31.58;100.00
12801;BME280;6464;42.494;27.470;2023-05-21T10:56:11;101464.47;;;33.40;100.00
12801;BME280;6464;42.494;27.470;2023-05-21T10:59:13;101427.16;;;32.32;100.00
12801;BME280;6464;42.494;27.470;2023-05-21T11:01:47;101329.59;;;29.47;100.00
12801;BME280;6464;42.494;27.470;2023-05-21T11:04:20;101329.69;;;29.35;100.00
12801;BME280;6464;42.494;27.470;2023-05-21T11:06:47;101232.28;;;27.28;100.00
12801;BME280;6464;42.494;27.470;2023-05-21T11:09:15;101321.09;;;30.11;100.00
12801;BME280;6464;42.494;27.470;2023-05-21T11:11:43;101416.25;;;31.67;100.00
12801;BME280;6464;42.494;27.470;2023-05-21T11:14:29;101449.13;;;32.40;100.00
12801;BME280;6464;42.494;27.470;2023-05-21T11:16:59;101461.66;;;34.02;100.00
12801;BME280;6464;42.494;27.470;2023-05-21T11:19:37;101521.00;;;35.45;100.00
12801;BME280;6464;42.494;27.470;2023-05-21T11:22:09;101407.00;;;31.21;100.00
12801;BME280;6464;42.494;27.470;2023-05-21T11:24:46;101252.44;;;27.80;100.00
12801;BME280;6464;42.494;27.470;2023-05-21T11:27:29;101255.41;;;28.94;100.00
12801;BME280;6464;42.494;27.470;2023-05-21T11:29:58;101317.16;;;29.84;100.00
12801;BME280;6464;42.494;27.470;2023-05-21T11:32:25;101403.91;;;32.28;100.00
12801;BME280;6464;42.494;27.470;2023-05-21T11:34:52;101467.72;;;34.14;100.00
12801;BME280;6464;42.494;27.470;2023-05-21T11:37:25;101498.13;;;34.87;100.00
12801;BME280;6464;42.494;27.470;2023-05-21T11:39:53;101450.94;;;33.57;100.00
12801;BME280;6464;42.494;27.470;2023-05-21T11:42:28;101485.50;;;34.52;100.00
12801;BME280;6464;42.494;27.470;2023-05-21T11:44:57;101494.56;;;35.03;100.00
12801;BME280;6464;42.494;27.470;2023-05-21T11:47:25;101494.16;;;34.90;100.00
12801;BME280;6464;42.494;27.470;2023-05-21T11:49:53;101442.34;;;32.90;100.00
12801;BME280;6464;42.494;27.470;2023-05-21T11:52:20;101455.94;;;34.21;100.00
12801;BME280;6464;42.494;27.470;2023-05-21T11:54:47;101482.06;;;35.41;100.00
12801;BME280;6464;42.494;27.470;2023-05-21T11:57:18;101462.47;;;34.79;100.00
12801;BME280;6464;42.494;27.470;2023-05-21T11:59:46;101485.69;;;35.25;100.00
12801;BME280;6464;42.494;27.470;2023-05-21T12:02:16;101443.44;;;33.59;100.00
12801;BME280;6464;42.494;27.470;2023-05-21T12:04:44;101368.84;;;31.78;100.00
12801;BME280;6464;42.494;27.470;2023-05-21T12:07:13;101353.81;;;31.08;100.00
12801;BME280;6464;42.494;27.470;2023-05-21T12:09:42;101312.16;;;29.80;100.00
12801;BME280;6464;42.494;27.470;2023-05-21T12:12:10;101370.22;;;31.55;100.00
12801;BME280;6464;42.494;27.470;2023-05-21T12:14:38;101375.44;;;31.76;100.00
12801;BME280;6464;42.494;27.470;2023-05-21T12:17:05;101375.47;;;32.03;100.00
12801;BME280;6464;42.494;27.470;2023-05-21T12:19:36;101338.06;;;30.92;100.00
12801;BME280;6464;42.494;27.470;2023-05-21T12:22:03;101339.16;;;31.28;100.00
12801;BME280;6464;42.494;27.470;2023-05-21T12:24:31;101308.63;;;29.99;100.00
12801;BME280;6464;42.494;27.470;2023-05-21T12:26:59;101243.13;;;28.79;100.00
12801;BME280;6464;42.494;27.470;2023-05-21T12:29:27;101186.88;;;27.64;100.00
12801;BME280;6464;42.494;27.470;2023-05-21T12:31:58;101128.38;;;26.62;100.00
12801;BME280;6464;42.494;27.470;2023-05-21T12:34:40;101099.66;;;26.26;100.00
12801;BME280;6464;42.494;27.470;2023-05-21T12:37:10;101110.63;;;26.35;100.00
12801;BME280;6464;42.494;27.470;2023-05-21T12:39:38;101069.00;;;25.68;100.00
12801;BME280;6464;42.494;27.470;2023-05-21T12:42:06;101083.44;;;25.55;100.00
12801;BME280;6464;42.494;27.470;2023-05-21T12:44:33;101024.03;;;24.95;100.00
12801;BME280;6464;42.494;27.470;2023-05-21T12:47:01;101025.56;;;24.99;100.00
12801;BME280;6464;42.494;27.470;2023-05-21T12:49:35;101028.19;;;24.87;100.00
12801;BME280;6464;42.494;27.470;2023-05-21T12:52:07;100990.03;;;24.81;100.00
12801;BME280;6464;42.494;27.470;2023-05-21T12:54:36;100891.31;;;23.92;100.00
12801;BME280;6464;42.494;27.470;2023-05-21T12:57:07;100948.72;;;24.18;100.00
12801;BME280;6464;42.494;27.470;2023-05-21T12:59:45;100951.09;;;24.23;100.00
12801;BME280;6464;42.494;27.470;2023-05-21T13:02:18;100825.28;;;23.48;100.00
12801;BME280;6464;42.494;27.470;2023-05-21T13:04:45;100923.31;;;23.97;100.00
12801;BME280;6464;42.494;27.470;2023-05-21T13:07:14;100913.63;;;23.81;100.00
12801;BME280;6464;42.494;27.470;2023-05-21T13:09:42;100926.13;;;23.95;100.00
12801;BME280;6464;42.494;27.470;2023-05-21T13:12:09;100957.47;;;23.83;100.00
12801;BME280;6464;42.494;27.470;2023-05-21T13:14:36;100837.91;;;23.22;100.00
12801;BME280;6464;42.494;27.470;2023-05-21T13:17:03;100902.66;;;23.72;100.00
12801;BME280;6464;42.494;27.470;2023-05-21T13:19:30;100894.03;;;23.79;100.00
12801;BME280;6464;42.494;27.470;2023-05-21T13:21:57;100877.84;;;23.92;100.00
12801;BME280;6464;42.494;27.470;2023-05-21T13:24:25;100870.78;;;23.66;100.00
12801;BME280;6464;42.494;27.470;2023-05-21T13:26:52;100937.50;;;23.60;100.00
12801;BME280;6464;42.494;27.470;2023-05-21T13:29:19;100882.03;;;23.96;100.00
12801;BME280;6464;42.494;27.470;2023-05-21T13:31:46;100924.09;;;24.48;100.00
12801;BME280;6464;42.494;27.470;2023-05-21T13:34:13;101042.81;;;25.33;100.00
12801;BME280;6464;42.494;27.470;2023-05-21T13:36:40;101043.41;;;25.25;100.00
12801;BME280;6464;42.494;27.470;2023-05-21T13:39:07;101006.66;;;25.35;100.00
12801;BME280;6464;42.494;27.470;2023-05-21T13:41:35;101069.59;;;26.64;100.00
12801;BME280;6464;42.494;27.470;2023-05-21T13:44:02;101180.75;;;27.51;100.00
12801;BME280;6464;42.494;27.470;2023-05-21T13:46:29;101228.88;;;28.24;100.00
12801;BME280;6464;42.494;27.470;2023-05-21T13:48:56;101174.56;;;27.60;100.00
12801;BME280;6464;42.494;27.470;2023-05-21T13:51:23;101207.88;;;27.39;100.00
12801;BME280;6464;42.494;27.470;2023-05-21T13:53:50;101181.28;;;26.88;100.00
12801;BME280;6464;42.494;27.470;2023-05-21T13:56:17;101149.94;;;26.28;100.00
12801;BME280;6464;42.494;27.470;2023-05-21T13:58:46;101065.56;;;25.66;100.00
12801;BME280;6464;42.494;27.470;2023-05-21T14:01:13;101190.81;;;26.12;100.00
12801;BME280;6464;42.494;27.470;2023-05-21T14:03:40;101223.09;;;26.03;100.00
12801;BME280;6464;42.494;27.470;2023-05-21T14:06:07;101133.47;;;25.96;100.00
12801;BME280;6464;42.494;27.470;2023-05-21T14:08:34;101006.66;;;25.35;100.00
12801;BME280;6464;42.494;27.470;2023-05-21T14:11:02;101015.31;;;25.28;100.00
12801;BME280;6464;42.494;27.470;2023-05-21T14:13:29;100988.63;;;25.12;100.00
12801;BME280;6464;42.494;27.470;2023-05-21T14:15:58;101012.66;;;24.78;100.00
12801;BME280;6464;42.494;27.470;2023-05-21T14:18:25;100907.78;;;23.88;100.00
12801;BME280;6464;42.494;27.470;2023-05-21T14:20:52;101005.22;;;23.94;100.00
12801;BME280;6464;42.494;27.470;2023-05-21T14:23:19;100887.03;;;22.99;100.00
12801;BME280;6464;42.494;27.470;2023-05-21T14:25:46;100950.06;;;22.95;100.00
12801;BME280;6464;42.494;27.470;2023-05-21T14:28:13;100742.97;;;21.74;100.00
12801;BME280;6464;42.494;27.470;2023-05-21T14:30:40;100733.88;;;21.76;100.00
12801;BME280;6464;42.494;27.470;2023-05-21T14:33:08;100625.22;;;21.55;100.00
12801;BME280;6464;42.494;27.470;2023-05-21T14:35:35;100567.53;;;21.75;100.00
12801;BME280;6464;42.494;27.470;2023-05-21T14:38:02;100345.91;;;21.20;100.00
12801;BME280;6464;42.494;27.470;2023-05-21T14:40:29;100234.88;;;21.10;100.00
12801;BME280;6464;42.494;27.470;2023-05-21T14:42:56;100140.19;;;20.84;100.00
12801;BME280;6464;42.494;27.470;2023-05-21T14:45:23;100141.16;;;20.95;100.00
12801;BME280;6464;42.494;27.470;2023-05-21T14:47:50;100143.94;;;21.19;100.00
12801;BME280;6464;42.494;27.470;2023-05-21T14:50:19;100047.91;;;20.88;100.00
12801;BME280;6464;42.494;27.470;2023-05-21T14:52:46;99933.25;;;20.67;100.00
12801;BME280;6464;42.494;27.470;2023-05-21T14:55:13;99991.38;;;21.03;100.00
12801;BME280;6464;42.494;27.470;2023-05-21T14:57:41;99981.03;;;20.73;100.00
12801;BME280;6464;42.494;27.470;2023-05-21T15:00:09;99865.91;;;19.98;100.00
12801;BME280;6464;42.494;27.470;2023-05-21T15:02:37;99908.28;;;20.17;100.00
12801;BME280;6464;42.494;27.470;2023-05-21T15:05:05;99857.59;;;19.77;100.00
12801;BME280;6464;42.494;27.470;2023-05-21T15:07:33;99885.81;;;19.82;100.00
12801;BME280;6464;42.494;27.470;2023-05-21T15:10:00;99974.25;;;20.31;100.00
12801;BME280;6464;42.494;27.470;2023-05-21T15:12:28;99926.69;;;19.96;100.00
12801;BME280;6464;42.494;27.470;2023-05-21T15:14:55;99948.97;;;19.84;100.00
12801;BME280;6464;42.494;27.470;2023-05-21T15:17:22;99957.84;;;20.10;100.00
12801;BME280;6464;42.494;27.470;2023-05-21T15:19:49;99949.41;;;20.03;100.00
12801;BME280;6464;42.494;27.470;2023-05-21T15:22:16;99936.25;;;19.88;100.00
12801;BME280;6464;42.494;27.470;2023-05-21T15:24:44;99885.97;;;19.53;100.00
12801;BME280;6464;42.494;27.470;2023-05-21T15:27:11;99963.41;;;19.82;100.00
12801;BME280;6464;42.494;27.470;2023-05-21T15:29:40;99932.69;;;20.00;100.00
12801;BME280;6464;42.494;27.470;2023-05-21T15:32:07;99858.50;;;19.51;100.00
12801;BME280;6464;42.494;27.470;2023-05-21T15:34:34;99836.69;;;19.44;100.00
12801;BME280;6464;42.494;27.470;2023-05-21T15:37:01;99898.00;;;19.86;100.00
12801;BME280;6464;42.494;27.470;2023-05-21T15:39:29;99908.06;;;19.95;100.00
12801;BME280;6464;42.494;27.470;2023-05-21T15:41:57;99843.13;;;19.67;100.00
12801;BME280;6464;42.494;27.470;2023-05-21T15:44:25;99979.28;;;20.36;100.00
12801;BME280;6464;42.494;27.470;2023-05-21T15:46:52;100017.09;;;20.57;100.00
12801;BME280;6464;42.494;27.470;2023-05-21T15:49:21;100227.38;;;21.15;100.00
12801;BME280;6464;42.494;27.470;2023-05-21T15:51:48;100415.63;;;21.85;100.00
12801;BME280;6464;42.494;27.470;2023-05-21T15:54:16;100602.59;;;22.51;100.00
12801;BME280;6464;42.494;27.470;2023-05-21T15:56:43;100826.47;;;23.44;100.00
12801;BME280;6464;42.494;27.470;2023-05-21T15:59:12;100877.94;;;23.52;100.00
12801;BME280;6464;42.494;27.470;2023-05-21T16:01:39;100840.91;;;23.30;100.00
12801;BME280;6464;42.494;27.470;2023-05-21T16:04:06;100905.94;;;23.63;100.00
12801;BME280;6464;42.494;27.470;2023-05-21T16:06:33;100928.28;;;23.12;100.00
12801;BME280;6464;42.494;27.470;2023-05-21T16:09:00;100756.16;;;22.05;100.00
12801;BME280;6464;42.494;27.470;2023-05-21T16:11:27;100673.94;;;21.49;100.00
12801;BME280;6464;42.494;27.470;2023-05-21T16:13:54;100530.28;;;21.16;100.00
12801;BME280;6464;42.494;27.470;2023-05-21T16:16:23;100475.69;;;20.90;100.00
12801;BME280;6464;42.494;27.470;2023-05-21T16:18:50;100259.97;;;20.16;100.00
12801;BME280;6464;42.494;27.470;2023-05-21T16:21:16;100223.56;;;19.99;100.00
12801;BME280;6464;42.494;27.470;2023-05-21T16:23:43;100197.41;;;20.17;100.00
12801;BME280;6464;42.494;27.470;2023-05-21T16:26:23;99970.09;;;19.22;100.00
12801;BME280;6464;42.494;27.470;2023-05-21T16:29:50;99879.78;;;19.00;100.00
12801;BME280;6464;42.494;27.470;2023-05-21T16:32:47;99761.97;;;18.78;100.00
12801;BME280;6464;42.494;27.470;2023-05-21T16:35:18;99826.50;;;19.37;100.00
12801;BME280;6464;42.494;27.470;2023-05-21T16:41:03;99635.53;;;18.64;100.00
12801;BME280;6464;42.494;27.470;2023-05-21T16:43:34;99617.31;;;18.71;100.00
12801;BME280;6464;42.494;27.470;2023-05-21T16:46:02;99707.84;;;19.01;100.00
12801;BME280;6464;42.494;27.470;2023-05-21T16:48:40;99597.63;;;18.59;100.00
12801;BME280;6464;42.494;27.470;2023-05-21T16:51:10;99536.53;;;18.16;100.00
12801;BME280;6464;42.494;27.470;2023-05-21T16:53:39;99640.47;;;18.70;100.00
12801;BME280;6464;42.494;27.470;2023-05-21T16:56:06;99523.03;;;17.80;100.00
12801;BME280;6464;42.494;27.470;2023-05-21T16:58:39;99542.38;;;17.96;100.00
12801;BME280;6464;42.494;27.470;2023-05-21T17:01:06;99472.25;;;17.54;100.00
12801;BME280;6464;42.494;27.470;2023-05-21T17:03:37;99547.88;;;17.80;100.00
12801;BME280;6464;42.494;27.470;2023-05-21T17:06:07;99409.03;;;17.04;100.00
12801;BME280;6464;42.494;27.470;2023-05-21T17:08:38;99474.25;;;17.38;100.00
12801;BME280;6464;42.494;27.470;2023-05-21T17:11:24;99609.34;;;18.18;100.00
12801;BME280;6464;42.494;27.470;2023-05-21T17:14:15;99403.09;;;16.86;100.00
12801;BME280;6464;42.494;27.470;2023-05-21T17:16:49;99576.31;;;18.07;100.00
12801;BME280;6464;42.494;27.470;2023-05-21T17:19:43;99573.88;;;18.04;100.00
12801;BME280;6464;42.494;27.470;2023-05-21T17:22:12;99593.47;;;18.03;100.00
12801;BME280;6464;42.494;27.470;2023-05-21T17:25:06;99433.34;;;17.12;100.00
12801;BME280;6464;42.494;27.470;2023-05-21T17:27:37;99443.06;;;17.13;100.00
12801;BME280;6464;42.494;27.470;2023-05-21T17:30:13;99526.25;;;17.85;100.00
12801;BME280;6464;42.494;27.470;2023-05-21T17:32:56;99517.16;;;17.75;100.00
12801;BME280;6464;42.494;27.470;2023-05-21T17:35:30;99346.38;;;16.57;100.00
12801;BME280;6464;42.494;27.470;2023-05-21T17:37:58;99400.50;;;16.99;100.00
12801;BME280;6464;42.494;27.470;2023-05-21T17:40:25;99423.16;;;17.18;100.00
12801;BME280;6464;42.494;27.470;2023-05-21T17:42:51;99413.81;;;16.99;100.00
12801;BME280;6464;42.494;27.470;2023-05-21T17:45:19;99445.75;;;16.99;100.00
12801;BME280;6464;42.494;27.470;2023-05-21T17:47:46;99483.66;;;17.16;100.00
12801;BME280;6464;42.494;27.470;2023-05-21T17:50:13;99551.97;;;17.44;100.00
12801;BME280;6464;42.494;27.470;2023-05-21T17:52:41;99437.44;;;16.76;100.00
12801;BME280;6464;42.494;27.470;2023-05-21T17:55:09;99549.28;;;17.32;100.00
12801;BME280;6464;42.494;27.470;2023-05-21T17:57:36;99551.56;;;17.24;100.00
12801;BME280;6464;42.494;27.470;2023-05-21T18:00:04;99542.84;;;17.21;100.00
12801;BME280;6464;42.494;27.470;2023-05-21T18:02:31;99510.72;;;16.96;100.00
12801;BME280;6464;42.494;27.470;2023-05-21T18:04:58;99461.13;;;16.52;100.00
12801;BME280;6464;42.494;27.470;2023-05-21T18:07:25;99526.78;;;16.66;100.00
12801;BME280;6464;42.494;27.470;2023-05-21T18:09:54;99540.78;;;16.69;100.00
12801;BME280;6464;42.494;27.470;2023-05-21T18:12:21;99599.84;;;17.05;100.00
12801;BME280;6464;42.494;27.470;2023-05-21T18:14:48;99471.00;;;16.64;100.00
12801;BME280;6464;42.494;27.470;2023-05-21T18:17:15;99428.63;;;16.47;100.00
12801;BME280;6464;42.494;27.470;2023-05-21T18:19:42;99352.97;;;15.81;100.00
12801;BME280;6464;42.494;27.470;2023-05-21T18:22:10;99420.47;;;16.36;100.00
12801;BME280;6464;42.494;27.470;2023-05-21T18:24:37;99323.19;;;15.60;100.00
12801;BME280;6464;42.494;27.470;2023-05-21T18:27:05;99482.81;;;16.75;100.00
12801;BME280;6464;42.494;27.470;2023-05-21T18:29:32;99385.44;;;16.01;100.00
12801;BME280;6464;42.494;27.470;2023-05-21T18:31:59;99489.63;;;16.64;100.00
12801;BME280;6464;42.494;27.470;2023-05-21T18:34:26;99323.28;;;15.45;100.00
12801;BME280;6464;42.494;27.470;2023-05-21T18:36:53;99355.53;;;15.97;100.00
12801;BME280;6464;42.494;27.470;2023-05-21T18:39:23;99482.69;;;16.62;100.00
12801;BME280;6464;42.494;27.470;2023-05-21T18:41:51;99484.72;;;16.44;100.00
12801;BME280;6464;42.494;27.470;2023-05-21T18:44:20;99428.91;;;16.00;100.00
12801;BME280;6464;42.494;27.470;2023-05-21T18:46:47;99467.78;;;16.31;100.00
12801;BME280;6464;42.494;27.470;2023-05-21T18:49:15;99476.31;;;16.07;100.00
12801;BME280;6464;42.494;27.470;2023-05-21T18:51:44;99456.38;;;16.14;100.00
12801;BME280;6464;42.494;27.470;2023-05-21T18:54:11;99478.91;;;16.23;100.00
12801;BME280;6464;42.494;27.470;2023-05-21T18:56:38;99582.91;;;16.77;100.00
12801;BME280;6464;42.494;27.470;2023-05-21T18:59:06;99439.63;;;15.84;100.00
12801;BME280;6464;42.494;27.470;2023-05-21T19:01:34;99571.94;;;16.67;100.00
12801;BME280;6464;42.494;27.470;2023-05-21T19:04:02;99479.47;;;16.28;100.00
12801;BME280;6464;42.494;27.470;2023-05-21T19:06:29;99587.09;;;16.95;100.00
12801;BME280;6464;42.494;27.470;2023-05-21T19:08:56;99495.72;;;16.38;100.00
12801;BME280;6464;42.494;27.470;2023-05-21T19:11:23;99574.91;;;16.91;100.00
12801;BME280;6464;42.494;27.470;2023-05-21T19:13:55;99613.44;;;17.14;100.00
12801;BME280;6464;42.494;27.470;2023-05-21T19:16:22;99458.75;;;16.19;100.00
12801;BME280;6464;42.494;27.470;2023-05-21T19:18:51;99529.56;;;16.64;100.00
12801;BME280;6464;42.494;27.470;2023-05-21T19:21:18;99600.69;;;16.91;100.00
12801;BME280;6464;42.494;27.470;2023-05-21T19:23:45;99611.63;;;17.01;100.00